首页
METAR-TAF:

METAR-TAF

机场 :

Leeming, 英格兰

纬度: 54-18N, 经度: 001-32W, 海拔: 40米

当前天气观测

该预报发布于34分钟前的09:50 UTC
风速12节,风向
温度 15°C
湿度 100%
气压 1017 hPa
能見度: 5000
阴天层高于400英尺
小毛毛雨

METAR: EGXE 140950Z 36012KT 9000 5000W -DZ OVC004 15/15 Q1017 YLO2 BECMG 8000 OVC006 RMK YLO2 BECMG YLO1

时间: 11:24 (10:24 UTC)

预报

该预报发布于1小时和8分钟前的09:16 UTC
预报有效从14日的 09点(UTC)到 14日的 18点(UTC)
风速10节,风向
能見度: 4000
阴天层高于400英尺
轻雾
成为
从 14日的 09点(UTC)到 14日的 11点(UTC)
能見度: 8000
阴天层高于600英尺
几率 30% :
短暂存在
从 14日的 09点(UTC)到 14日的 12点(UTC)
能見度: 2000
散云层高于7000英尺, 积雨云.
雷暴, 雨
成为
从 14日的 11点(UTC)到 14日的 14点(UTC)
多云层高于1000英尺

TAF: EGXE 140916Z 1409/1418 35010KT 4000 BR OVC004 BECMG 1409/1411 8000 HZ OVC006 PROB30 TEMPO 1409/1412 2000 TSRA SCT070CB BECMG 1411/1414 BKN010

超过4000个机场的气象观测和天气预报(METAR&TAF报告)。

可查询的气象台以黄色和红色小点在地图上表示。

将鼠标移到小点上方,可查看气象台名称。

然后点击查看天气观测和预报。

如需切换地图:点击带黑十字的绿色按钮放大地图;点击带横线的绿色按钮缩小地图;或者点击绿色箭头查看邻近地区的地图。


METAR-TAF: